sensor_id;sensor_type;location;lat;lon;timestamp;pressure;altitude;pressure_sealevel;temperature
15360;BMP280;7779;49.596;11.070;2023-05-29T00:00:20;98372.16;;;16.68
15360;BMP280;7779;49.596;11.070;2023-05-29T00:02:49;98371.25;;;16.64
15360;BMP280;7779;49.596;11.070;2023-05-29T00:05:15;98367.69;;;16.59
15360;BMP280;7779;49.596;11.070;2023-05-29T00:07:41;98365.03;;;16.56
15360;BMP280;7779;49.596;11.070;2023-05-29T00:10:10;98369.19;;;16.54
15360;BMP280;7779;49.596;11.070;2023-05-29T00:12:38;98372.50;;;16.52
15360;BMP280;7779;49.596;11.070;2023-05-29T00:15:05;98379.97;;;16.49
15360;BMP280;7779;49.596;11.070;2023-05-29T00:17:32;98371.47;;;16.47
15360;BMP280;7779;49.596;11.070;2023-05-29T00:19:59;98376.41;;;16.44
15360;BMP280;7779;49.596;11.070;2023-05-29T00:22:27;98373.81;;;16.41
15360;BMP280;7779;49.596;11.070;2023-05-29T00:24:53;98366.91;;;16.37
15360;BMP280;7779;49.596;11.070;2023-05-29T00:27:19;98371.88;;;16.34
15360;BMP280;7779;49.596;11.070;2023-05-29T00:29:46;98365.00;;;16.30
15360;BMP280;7779;49.596;11.070;2023-05-29T00:32:12;98366.63;;;16.28
15360;BMP280;7779;49.596;11.070;2023-05-29T00:34:37;98363.13;;;16.25
15360;BMP280;7779;49.596;11.070;2023-05-29T00:37:03;98358.72;;;16.19
15360;BMP280;7779;49.596;11.070;2023-05-29T00:39:29;98358.50;;;16.15
15360;BMP280;7779;49.596;11.070;2023-05-29T00:41:56;98358.38;;;16.12
15360;BMP280;7779;49.596;11.070;2023-05-29T00:44:22;98364.06;;;16.05
15360;BMP280;7779;49.596;11.070;2023-05-29T00:46:52;98363.88;;;16.01
15360;BMP280;7779;49.596;11.070;2023-05-29T00:49:20;98369.53;;;15.94
15360;BMP280;7779;49.596;11.070;2023-05-29T00:51:48;98366.78;;;15.88
15360;BMP280;7779;49.596;11.070;2023-05-29T00:54:21;98369.91;;;15.81
15360;BMP280;7779;49.596;11.070;2023-05-29T00:56:50;98373.00;;;15.74
15360;BMP280;7779;49.596;11.070;2023-05-29T00:59:16;98371.03;;;15.67
15360;BMP280;7779;49.596;11.070;2023-05-29T01:01:44;98370.03;;;15.62
15360;BMP280;7779;49.596;11.070;2023-05-29T01:04:11;98369.78;;;15.56
15360;BMP280;7779;49.596;11.070;2023-05-29T01:06:38;98376.38;;;15.51
15360;BMP280;7779;49.596;11.070;2023-05-29T01:09:05;98370.22;;;15.45
15360;BMP280;7779;49.596;11.070;2023-05-29T01:12:08;98371.69;;;15.40
15360;BMP280;7779;49.596;11.070;2023-05-29T01:20:52;98381.75;;;15.17
15360;BMP280;7779;49.596;11.070;2023-05-29T01:23:56;98384.78;;;15.10
15360;BMP280;7779;49.596;11.070;2023-05-29T01:26:49;98381.09;;;15.02
15360;BMP280;7779;49.596;11.070;2023-05-29T01:29:26;98388.44;;;14.96
15360;BMP280;7779;49.596;11.070;2023-05-29T01:31:54;98382.34;;;14.91
15360;BMP280;7779;49.596;11.070;2023-05-29T01:34:20;98382.09;;;14.85
15360;BMP280;7779;49.596;11.070;2023-05-29T01:36:46;98382.78;;;14.81
15360;BMP280;7779;49.596;11.070;2023-05-29T01:39:15;98385.97;;;14.77
15360;BMP280;7779;49.596;11.070;2023-05-29T01:41:43;98379.06;;;14.73
15360;BMP280;7779;49.596;11.070;2023-05-29T01:44:11;98376.31;;;14.67
15360;BMP280;7779;49.596;11.070;2023-05-29T01:46:42;98382.81;;;14.62
15360;BMP280;7779;49.596;11.070;2023-05-29T01:49:10;98372.56;;;14.58
15360;BMP280;7779;49.596;11.070;2023-05-29T01:51:38;98380.81;;;14.54
15360;BMP280;7779;49.596;11.070;2023-05-29T01:54:04;98369.59;;;14.47
15360;BMP280;7779;49.596;11.070;2023-05-29T01:56:31;98369.47;;;14.44
15360;BMP280;7779;49.596;11.070;2023-05-29T01:58:58;98366.69;;;14.39
15360;BMP280;7779;49.596;11.070;2023-05-29T02:01:24;98377.53;;;14.36
15360;BMP280;7779;49.596;11.070;2023-05-29T02:03:50;98368.03;;;14.31
15360;BMP280;7779;49.596;11.070;2023-05-29T02:06:20;98364.47;;;14.26
15360;BMP280;7779;49.596;11.070;2023-05-29T02:08:46;98368.44;;;14.21
15360;BMP280;7779;49.596;11.070;2023-05-29T02:11:13;98367.41;;;14.16
15360;BMP280;7779;49.596;11.070;2023-05-29T02:13:39;98373.06;;;14.10
15360;BMP280;7779;49.596;11.070;2023-05-29T02:16:05;98370.31;;;14.06
15360;BMP280;7779;49.596;11.070;2023-05-29T02:18:31;98368.47;;;14.02
15360;BMP280;7779;49.596;11.070;2023-05-29T02:20:57;98363.16;;;13.96
15360;BMP280;7779;49.596;11.070;2023-05-29T02:23:23;98361.25;;;13.92
15360;BMP280;7779;49.596;11.070;2023-05-29T02:25:50;98366.19;;;13.89
15360;BMP280;7779;49.596;11.070;2023-05-29T02:28:16;98365.13;;;13.84
15360;BMP280;7779;49.596;11.070;2023-05-29T02:30:42;98357.34;;;13.80
15360;BMP280;7779;49.596;11.070;2023-05-29T02:33:08;98355.44;;;13.74
15360;BMP280;7779;49.596;11.070;2023-05-29T02:35:34;98362.78;;;13.70
15360;BMP280;7779;49.596;11.070;2023-05-29T02:38:00;98360.94;;;13.66
15360;BMP280;7779;49.596;11.070;2023-05-29T02:40:26;98359.94;;;13.63
15360;BMP280;7779;49.596;11.070;2023-05-29T02:42:52;98354.66;;;13.57
15360;BMP280;7779;49.596;11.070;2023-05-29T02:45:18;98359.53;;;13.54
15360;BMP280;7779;49.596;11.070;2023-05-29T02:47:43;98350.91;;;13.49
15360;BMP280;7779;49.596;11.070;2023-05-29T02:50:10;98350.63;;;13.43
15360;BMP280;7779;49.596;11.070;2023-05-29T02:52:36;98357.13;;;13.38
15360;BMP280;7779;49.596;11.070;2023-05-29T02:55:05;98361.94;;;13.33
15360;BMP280;7779;49.596;11.070;2023-05-29T02:57:32;98353.31;;;13.28
15360;BMP280;7779;49.596;11.070;2023-05-29T02:59:58;98364.06;;;13.25
15360;BMP280;7779;49.596;11.070;2023-05-29T03:02:24;98368.06;;;13.21
15360;BMP280;7779;49.596;11.070;2023-05-29T03:04:51;98366.22;;;13.17
15360;BMP280;7779;49.596;11.070;2023-05-29T03:07:18;98360.97;;;13.13
15360;BMP280;7779;49.596;11.070;2023-05-29T03:09:44;98363.34;;;13.10
15360;BMP280;7779;49.596;11.070;2023-05-29T03:12:10;98365.72;;;13.07
15360;BMP280;7779;49.596;11.070;2023-05-29T03:14:36;98366.38;;;13.03
15360;BMP280;7779;49.596;11.070;2023-05-29T03:17:06;98372.97;;;13.01
15360;BMP280;7779;49.596;11.070;2023-05-29T03:19:33;98372.09;;;13.00
15360;BMP280;7779;49.596;11.070;2023-05-29T03:21:59;98371.16;;;12.98
15360;BMP280;7779;49.596;11.070;2023-05-29T03:24:25;98378.63;;;12.97
15360;BMP280;7779;49.596;11.070;2023-05-29T03:26:51;98378.59;;;12.95
15360;BMP280;7779;49.596;11.070;2023-05-29T03:29:18;98369.31;;;12.94
15360;BMP280;7779;49.596;11.070;2023-05-29T03:31:45;98370.88;;;12.92
15360;BMP280;7779;49.596;11.070;2023-05-29T03:34:13;98371.66;;;12.91
15360;BMP280;7779;49.596;11.070;2023-05-29T03:36:48;98369.97;;;12.90
15360;BMP280;7779;49.596;11.070;2023-05-29T03:39:14;98369.97;;;12.90
15360;BMP280;7779;49.596;11.070;2023-05-29T03:41:40;98371.53;;;12.88
15360;BMP280;7779;49.596;11.070;2023-05-29T03:44:06;98376.56;;;12.88
15360;BMP280;7779;49.596;11.070;2023-05-29T03:46:32;98374.81;;;12.88
15360;BMP280;7779;49.596;11.070;2023-05-29T03:48:58;98382.28;;;12.86
15360;BMP280;7779;49.596;11.070;2023-05-29T03:51:24;98376.41;;;12.86
15360;BMP280;7779;49.596;11.070;2023-05-29T03:53:53;98388.22;;;12.87
15360;BMP280;7779;49.596;11.070;2023-05-29T03:56:18;98383.19;;;12.87
15360;BMP280;7779;49.596;11.070;2023-05-29T03:58:45;98384.88;;;12.88
15360;BMP280;7779;49.596;11.070;2023-05-29T04:01:12;98391.66;;;12.88
15360;BMP280;7779;49.596;11.070;2023-05-29T04:03:38;98395.09;;;12.90
15360;BMP280;7779;49.596;11.070;2023-05-29T04:06:05;98395.09;;;12.90
15360;BMP280;7779;49.596;11.070;2023-05-29T04:08:30;98393.53;;;12.92
15360;BMP280;7779;49.596;11.070;2023-05-29T04:10:56;98399.56;;;12.96
15360;BMP280;7779;49.596;11.070;2023-05-29T04:13:22;98397.97;;;12.98
15360;BMP280;7779;49.596;11.070;2023-05-29T04:15:48;98408.19;;;13.01
15360;BMP280;7779;49.596;11.070;2023-05-29T04:18:15;98410.13;;;13.06
15360;BMP280;7779;49.596;11.070;2023-05-29T04:20:41;98411.06;;;13.08
15360;BMP280;7779;49.596;11.070;2023-05-29T04:23:07;98411.34;;;13.14
15360;BMP280;7779;49.596;11.070;2023-05-29T04:25:33;98416.66;;;13.20
15360;BMP280;7779;49.596;11.070;2023-05-29T04:27:59;98423.78;;;13.28
15360;BMP280;7779;49.596;11.070;2023-05-29T04:30:27;98422.81;;;13.44
15360;BMP280;7779;49.596;11.070;2023-05-29T04:32:54;98420.50;;;13.66
15360;BMP280;7779;49.596;11.070;2023-05-29T04:35:22;98416.66;;;13.92
15360;BMP280;7779;49.596;11.070;2023-05-29T04:37:56;98425.69;;;14.23
15360;BMP280;7779;49.596;11.070;2023-05-29T04:40:25;98417.72;;;14.53
15360;BMP280;7779;49.596;11.070;2023-05-29T04:42:52;98422.44;;;14.85
15360;BMP280;7779;49.596;11.070;2023-05-29T04:45:22;98425.25;;;15.13
15360;BMP280;7779;49.596;11.070;2023-05-29T04:47:48;98424.41;;;15.32
15360;BMP280;7779;49.596;11.070;2023-05-29T04:50:16;98426.03;;;15.52
15360;BMP280;7779;49.596;11.070;2023-05-29T04:52:43;98432.63;;;15.69
15360;BMP280;7779;49.596;11.070;2023-05-29T04:55:10;98435.63;;;15.82
15360;BMP280;7779;49.596;11.070;2023-05-29T04:57:37;98448.88;;;15.99
15360;BMP280;7779;49.596;11.070;2023-05-29T05:00:04;98438.47;;;16.13
15360;BMP280;7779;49.596;11.070;2023-05-29T05:02:37;98441.50;;;16.26
15360;BMP280;7779;49.596;11.070;2023-05-29T05:05:03;98436.91;;;16.38
15360;BMP280;7779;49.596;11.070;2023-05-29T05:07:29;98440.78;;;16.52
15360;BMP280;7779;49.596;11.070;2023-05-29T05:09:55;98439.56;;;16.66
15360;BMP280;7779;49.596;11.070;2023-05-29T05:12:25;98445.94;;;16.80
15360;BMP280;7779;49.596;11.070;2023-05-29T05:14:51;98438.78;;;16.91
15360;BMP280;7779;49.596;11.070;2023-05-29T05:17:17;98451.22;;;17.10
15360;BMP280;7779;49.596;11.070;2023-05-29T05:19:43;98445.03;;;17.27
15360;BMP280;7779;49.596;11.070;2023-05-29T05:22:08;98450.63;;;17.43
15360;BMP280;7779;49.596;11.070;2023-05-29T05:24:34;98457.09;;;17.60
15360;BMP280;7779;49.596;11.070;2023-05-29T05:27:03;98461.94;;;17.80
15360;BMP280;7779;49.596;11.070;2023-05-29T05:29:30;98460.75;;;17.97
15360;BMP280;7779;49.596;11.070;2023-05-29T05:31:56;98459.63;;;18.14
15360;BMP280;7779;49.596;11.070;2023-05-29T05:34:23;98462.63;;;18.30
15360;BMP280;7779;49.596;11.070;2023-05-29T05:36:49;98465.63;;;18.46
15360;BMP280;7779;49.596;11.070;2023-05-29T05:39:15;98459.31;;;18.63
15360;BMP280;7779;49.596;11.070;2023-05-29T05:41:44;98464.09;;;18.83
15360;BMP280;7779;49.596;11.070;2023-05-29T05:44:13;98460.41;;;19.03
15360;BMP280;7779;49.596;11.070;2023-05-29T05:46:58;98454.19;;;19.24
15360;BMP280;7779;49.596;11.070;2023-05-29T05:49:25;98452.19;;;19.48
15360;BMP280;7779;49.596;11.070;2023-05-29T05:51:50;98462.13;;;19.73
15360;BMP280;7779;49.596;11.070;2023-05-29T05:54:17;98461.06;;;20.00
15360;BMP280;7779;49.596;11.070;2023-05-29T05:56:42;98472.69;;;20.29
15360;BMP280;7779;49.596;11.070;2023-05-29T05:59:10;98460.56;;;20.57
15360;BMP280;7779;49.596;11.070;2023-05-29T06:01:36;98467.91;;;20.84
15360;BMP280;7779;49.596;11.070;2023-05-29T06:04:02;98454.81;;;21.12
15360;BMP280;7779;49.596;11.070;2023-05-29T06:06:30;98462.09;;;21.40
15360;BMP280;7779;49.596;11.070;2023-05-29T06:08:57;98459.16;;;21.67
15360;BMP280;7779;49.596;11.070;2023-05-29T06:11:24;98456.97;;;21.93
15360;BMP280;7779;49.596;11.070;2023-05-29T06:13:52;98456.53;;;22.19
15360;BMP280;7779;49.596;11.070;2023-05-29T06:16:22;98449.19;;;22.45
15360;BMP280;7779;49.596;11.070;2023-05-29T06:18:48;98453.72;;;22.72
15360;BMP280;7779;49.596;11.070;2023-05-29T06:21:16;98451.47;;;22.97
15360;BMP280;7779;49.596;11.070;2023-05-29T06:23:50;98446.56;;;23.20
15360;BMP280;7779;49.596;11.070;2023-05-29T06:26:16;98442.47;;;23.40
15360;BMP280;7779;49.596;11.070;2023-05-29T06:28:42;98443.50;;;23.60
15360;BMP280;7779;49.596;11.070;2023-05-29T06:31:07;98455.59;;;23.79
15360;BMP280;7779;49.596;11.070;2023-05-29T06:33:33;98448.03;;;23.96
15360;BMP280;7779;49.596;11.070;2023-05-29T06:35:59;98446.41;;;24.13
15360;BMP280;7779;49.596;11.070;2023-05-29T06:38:25;98453.34;;;24.29
15360;BMP280;7779;49.596;11.070;2023-05-29T06:40:51;98452.53;;;24.45
15360;BMP280;7779;49.596;11.070;2023-05-29T06:43:17;98449.16;;;24.59
15360;BMP280;7779;49.596;11.070;2023-05-29T06:45:47;98448.38;;;24.73
15360;BMP280;7779;49.596;11.070;2023-05-29T06:48:13;98452.66;;;24.86
15360;BMP280;7779;49.596;11.070;2023-05-29T06:50:40;98457.00;;;24.96
15360;BMP280;7779;49.596;11.070;2023-05-29T06:53:25;98458.72;;;25.06
15360;BMP280;7779;49.596;11.070;2023-05-29T06:55:54;98454.47;;;25.14
15360;BMP280;7779;49.596;11.070;2023-05-29T06:58:20;98462.16;;;25.20
15360;BMP280;7779;49.596;11.070;2023-05-29T07:00:46;98457.03;;;25.26
15360;BMP280;7779;49.596;11.070;2023-05-29T07:03:31;98455.31;;;25.31
15360;BMP280;7779;49.596;11.070;2023-05-29T07:05:56;98451.06;;;25.37
15360;BMP280;7779;49.596;11.070;2023-05-29T07:08:24;98447.63;;;25.46
15360;BMP280;7779;49.596;11.070;2023-05-29T07:10:51;98446.81;;;25.58
15360;BMP280;7779;49.596;11.070;2023-05-29T07:13:19;98451.91;;;25.70
15360;BMP280;7779;49.596;11.070;2023-05-29T07:15:45;98450.19;;;25.81
15360;BMP280;7779;49.596;11.070;2023-05-29T07:18:12;98450.16;;;25.89
15360;BMP280;7779;49.596;11.070;2023-05-29T07:20:38;98449.31;;;25.95
15360;BMP280;7779;49.596;11.070;2023-05-29T07:23:09;98445.00;;;25.99
15360;BMP280;7779;49.596;11.070;2023-05-29T07:25:35;98440.72;;;26.04
15360;BMP280;7779;49.596;11.070;2023-05-29T07:28:01;98454.38;;;26.12
15360;BMP280;7779;49.596;11.070;2023-05-29T07:30:27;98450.94;;;26.16
15360;BMP280;7779;49.596;11.070;2023-05-29T07:32:53;98454.38;;;26.21
15360;BMP280;7779;49.596;11.070;2023-05-29T07:35:19;98457.81;;;26.27
15360;BMP280;7779;49.596;11.070;2023-05-29T07:37:47;98455.22;;;26.34
15360;BMP280;7779;49.596;11.070;2023-05-29T07:40:15;98450.88;;;26.44
15360;BMP280;7779;49.596;11.070;2023-05-29T07:42:59;98452.56;;;26.52
15360;BMP280;7779;49.596;11.070;2023-05-29T07:45:35;98449.97;;;26.61
15360;BMP280;7779;49.596;11.070;2023-05-29T07:48:01;98454.22;;;26.64
15360;BMP280;7779;49.596;11.070;2023-05-29T07:50:28;98447.34;;;26.64
15360;BMP280;7779;49.596;11.070;2023-05-29T07:52:54;98449.03;;;26.68
15360;BMP280;7779;49.596;11.070;2023-05-29T07:55:22;98455.03;;;26.73
15360;BMP280;7779;49.596;11.070;2023-05-29T07:57:47;98439.59;;;26.73
15360;BMP280;7779;49.596;11.070;2023-05-29T08:00:15;98444.75;;;26.73
15360;BMP280;7779;49.596;11.070;2023-05-29T08:02:47;98454.19;;;26.71
15360;BMP280;7779;49.596;11.070;2023-05-29T08:05:31;98448.19;;;26.69
15360;BMP280;7779;49.596;11.070;2023-05-29T08:08:05;98451.59;;;26.68
15360;BMP280;7779;49.596;11.070;2023-05-29T08:10:32;98448.22;;;26.65
15360;BMP280;7779;49.596;11.070;2023-05-29T08:12:58;98448.19;;;26.66
15360;BMP280;7779;49.596;11.070;2023-05-29T08:15:23;98461.03;;;26.69
15360;BMP280;7779;49.596;11.070;2023-05-29T08:17:51;98450.75;;;26.69
15360;BMP280;7779;49.596;11.070;2023-05-29T08:20:17;98458.47;;;26.69
15360;BMP280;7779;49.596;11.070;2023-05-29T08:22:43;98457.63;;;26.66
15360;BMP280;7779;49.596;11.070;2023-05-29T08:25:08;98455.94;;;26.63
15360;BMP280;7779;49.596;11.070;2023-05-29T08:27:35;98448.25;;;26.60
15360;BMP280;7779;49.596;11.070;2023-05-29T08:30:00;98449.09;;;26.59
15360;BMP280;7779;49.596;11.070;2023-05-29T08:32:27;98451.69;;;26.58
15360;BMP280;7779;49.596;11.070;2023-05-29T08:34:53;98460.25;;;26.58
15360;BMP280;7779;49.596;11.070;2023-05-29T08:37:19;98451.69;;;26.53
15360;BMP280;7779;49.596;11.070;2023-05-29T08:39:45;98452.56;;;26.49
15360;BMP280;7779;49.596;11.070;2023-05-29T08:42:20;98450.84;;;26.48
15360;BMP280;7779;49.596;11.070;2023-05-29T08:44:47;98441.44;;;26.47
15360;BMP280;7779;49.596;11.070;2023-05-29T08:47:17;98427.72;;;26.48
15360;BMP280;7779;49.596;11.070;2023-05-29T08:49:52;98438.84;;;26.53
15360;BMP280;7779;49.596;11.070;2023-05-29T08:52:25;98443.13;;;26.56
15360;BMP280;7779;49.596;11.070;2023-05-29T08:54:53;98431.97;;;26.58
15360;BMP280;7779;49.596;11.070;2023-05-29T08:57:20;98427.66;;;26.65
15360;BMP280;7779;49.596;11.070;2023-05-29T08:59:51;98422.50;;;26.69
15360;BMP280;7779;49.596;11.070;2023-05-29T09:02:17;98424.19;;;26.73
15360;BMP280;7779;49.596;11.070;2023-05-29T09:04:44;98422.44;;;26.78
15360;BMP280;7779;49.596;11.070;2023-05-29T09:07:19;98423.28;;;26.81
15360;BMP280;7779;49.596;11.070;2023-05-29T09:09:46;98426.72;;;26.83
15360;BMP280;7779;49.596;11.070;2023-05-29T09:12:12;98419.00;;;26.86
15360;BMP280;7779;49.596;11.070;2023-05-29T09:14:43;98421.53;;;26.89
15360;BMP280;7779;49.596;11.070;2023-05-29T09:17:11;98429.25;;;26.92
15360;BMP280;7779;49.596;11.070;2023-05-29T09:19:39;98430.91;;;26.95
15360;BMP280;7779;49.596;11.070;2023-05-29T09:22:12;98425.78;;;26.98
15360;BMP280;7779;49.596;11.070;2023-05-29T09:24:45;98421.47;;;27.00
15360;BMP280;7779;49.596;11.070;2023-05-29T09:27:12;98418.88;;;27.03
15360;BMP280;7779;49.596;11.070;2023-05-29T09:29:40;98417.16;;;27.03
15360;BMP280;7779;49.596;11.070;2023-05-29T09:32:16;98424.81;;;27.08
15360;BMP280;7779;49.596;11.070;2023-05-29T09:34:45;98423.97;;;27.09
15360;BMP280;7779;49.596;11.070;2023-05-29T09:37:12;98427.38;;;27.09
15360;BMP280;7779;49.596;11.070;2023-05-29T09:39:51;98432.53;;;27.08
15360;BMP280;7779;49.596;11.070;2023-05-29T09:42:20;98431.69;;;27.07
15360;BMP280;7779;49.596;11.070;2023-05-29T09:44:49;98433.38;;;27.11
15360;BMP280;7779;49.596;11.070;2023-05-29T09:47:18;98431.63;;;27.14
15360;BMP280;7779;49.596;11.070;2023-05-29T09:49:45;98439.34;;;27.17
15360;BMP280;7779;49.596;11.070;2023-05-29T09:52:15;98430.78;;;27.15
15360;BMP280;7779;49.596;11.070;2023-05-29T09:54:44;98434.22;;;27.14
15360;BMP280;7779;49.596;11.070;2023-05-29T09:57:17;98432.53;;;27.11
15360;BMP280;7779;49.596;11.070;2023-05-29T09:59:46;98425.72;;;27.07
15360;BMP280;7779;49.596;11.070;2023-05-29T10:02:17;98428.28;;;27.07
15360;BMP280;7779;49.596;11.070;2023-05-29T10:04:43;98425.66;;;27.10
15360;BMP280;7779;49.596;11.070;2023-05-29T10:07:26;98423.97;;;27.12
15360;BMP280;7779;49.596;11.070;2023-05-29T10:09:59;98423.94;;;27.13
15360;BMP280;7779;49.596;11.070;2023-05-29T10:12:28;98417.09;;;27.13
15360;BMP280;7779;49.596;11.070;2023-05-29T10:14:59;98423.06;;;27.15
15360;BMP280;7779;49.596;11.070;2023-05-29T10:17:36;98420.50;;;27.15
15360;BMP280;7779;49.596;11.070;2023-05-29T10:20:05;98418.78;;;27.14
15360;BMP280;7779;49.596;11.070;2023-05-29T10:22:40;98415.31;;;27.18
15360;BMP280;7779;49.596;11.070;2023-05-29T10:25:10;98407.56;;;27.23
15360;BMP280;7779;49.596;11.070;2023-05-29T10:27:37;98399.81;;;27.27
15360;BMP280;7779;49.596;11.070;2023-05-29T10:30:28;98410.91;;;27.31
15360;BMP280;7779;49.596;11.070;2023-05-29T10:33:20;98408.28;;;27.38
15360;BMP280;7779;49.596;11.070;2023-05-29T10:36:14;98415.13;;;27.42
15360;BMP280;7779;49.596;11.070;2023-05-29T10:38:50;98403.19;;;27.37
15360;BMP280;7779;49.596;11.070;2023-05-29T10:44:00;98403.19;;;27.35
15360;BMP280;7779;49.596;11.070;2023-05-29T10:49:20;98403.06;;;27.50
15360;BMP280;7779;49.596;11.070;2023-05-29T10:51:47;98402.16;;;27.57
15360;BMP280;7779;49.596;11.070;2023-05-29T10:54:15;98402.09;;;27.63
15360;BMP280;7779;49.596;11.070;2023-05-29T10:56:51;98389.19;;;27.66
15360;BMP280;7779;49.596;11.070;2023-05-29T10:59:18;98391.72;;;27.70
15360;BMP280;7779;49.596;11.070;2023-05-29T11:01:44;98383.97;;;27.75
15360;BMP280;7779;49.596;11.070;2023-05-29T11:06:48;98388.13;;;27.83
15360;BMP280;7779;49.596;11.070;2023-05-29T11:12:21;98392.34;;;27.91
15360;BMP280;7779;49.596;11.070;2023-05-29T11:15:09;98388.94;;;27.90
15360;BMP280;7779;49.596;11.070;2023-05-29T11:20:06;98391.44;;;27.94
15360;BMP280;7779;49.596;11.070;2023-05-29T11:25:27;98381.13;;;27.95
15360;BMP280;7779;49.596;11.070;2023-05-29T11:27:53;98375.97;;;27.97
15360;BMP280;7779;49.596;11.070;2023-05-29T11:30:20;98373.34;;;28.01
15360;BMP280;7779;49.596;11.070;2023-05-29T11:32:47;98374.22;;;27.99
15360;BMP280;7779;49.596;11.070;2023-05-29T11:35:14;98377.69;;;27.96
15360;BMP280;7779;49.596;11.070;2023-05-29T11:37:44;98370.00;;;27.95
15360;BMP280;7779;49.596;11.070;2023-05-29T11:40:13;98369.97;;;27.96
15360;BMP280;7779;49.596;11.070;2023-05-29T11:42:45;98360.50;;;28.00
15360;BMP280;7779;49.596;11.070;2023-05-29T11:45:18;98369.03;;;28.05
15360;BMP280;7779;49.596;11.070;2023-05-29T11:47:55;98371.56;;;28.08
15360;BMP280;7779;49.596;11.070;2023-05-29T11:50:27;98377.63;;;28.05
15360;BMP280;7779;49.596;11.070;2023-05-29T11:52:56;98380.22;;;28.05
15360;BMP280;7779;49.596;11.070;2023-05-29T11:55:23;98380.22;;;28.05
15360;BMP280;7779;49.596;11.070;2023-05-29T11:58:00;98384.47;;;28.06
15360;BMP280;7779;49.596;11.070;2023-05-29T12:00:34;98374.16;;;28.08
15360;BMP280;7779;49.596;11.070;2023-05-29T12:03:02;98369.81;;;28.11
15360;BMP280;7779;49.596;11.070;2023-05-29T12:08:10;98368.00;;;28.19
15360;BMP280;7779;49.596;11.070;2023-05-29T12:10:36;98367.09;;;28.23
15360;BMP280;7779;49.596;11.070;2023-05-29T12:13:02;98361.91;;;28.26
15360;BMP280;7779;49.596;11.070;2023-05-29T12:15:27;98363.53;;;28.33
15360;BMP280;7779;49.596;11.070;2023-05-29T12:17:55;98371.25;;;28.34
15360;BMP280;7779;49.596;11.070;2023-05-29T12:20:25;98358.34;;;28.36
15360;BMP280;7779;49.596;11.070;2023-05-29T12:23:01;98355.78;;;28.33
15360;BMP280;7779;49.596;11.070;2023-05-29T12:25:27;98360.97;;;28.30
15360;BMP280;7779;49.596;11.070;2023-05-29T12:27:56;98366.09;;;28.33
15360;BMP280;7779;49.596;11.070;2023-05-29T12:30:24;98366.09;;;28.34
15360;BMP280;7779;49.596;11.070;2023-05-29T12:32:52;98365.16;;;28.38
15360;BMP280;7779;49.596;11.070;2023-05-29T12:35:23;98360.81;;;28.42
15360;BMP280;7779;49.596;11.070;2023-05-29T12:37:59;98364.22;;;28.44
15360;BMP280;7779;49.596;11.070;2023-05-29T12:40:28;98356.47;;;28.45
15360;BMP280;7779;49.596;11.070;2023-05-29T12:43:03;98344.41;;;28.49
15360;BMP280;7779;49.596;11.070;2023-05-29T12:45:32;98348.63;;;28.53
15360;BMP280;7779;49.596;11.070;2023-05-29T12:48:02;98338.28;;;28.56
15360;BMP280;7779;49.596;11.070;2023-05-29T12:50:30;98337.38;;;28.60
15360;BMP280;7779;49.596;11.070;2023-05-29T12:53:05;98335.66;;;28.62
15360;BMP280;7779;49.596;11.070;2023-05-29T12:55:37;98329.56;;;28.66
15360;BMP280;7779;49.596;11.070;2023-05-29T12:58:09;98338.13;;;28.68
15360;BMP280;7779;49.596;11.070;2023-05-29T13:00:37;98332.13;;;28.69
15360;BMP280;7779;49.596;11.070;2023-05-29T13:03:04;98329.47;;;28.71
15360;BMP280;7779;49.596;11.070;2023-05-29T13:05:32;98324.28;;;28.74
15360;BMP280;7779;49.596;11.070;2023-05-29T13:07:59;98318.25;;;28.77
15360;BMP280;7779;49.596;11.070;2023-05-29T13:10:26;98333.66;;;28.78
15360;BMP280;7779;49.596;11.070;2023-05-29T13:12:55;98321.66;;;28.79
15360;BMP280;7779;49.596;11.070;2023-05-29T13:15:25;98319.00;;;28.80
15360;BMP280;7779;49.596;11.070;2023-05-29T13:17:52;98311.25;;;28.83
15360;BMP280;7779;49.596;11.070;2023-05-29T13:20:19;98311.22;;;28.86
15360;BMP280;7779;49.596;11.070;2023-05-29T13:22:47;98322.34;;;28.88
15360;BMP280;7779;49.596;11.070;2023-05-29T13:25:15;98332.66;;;28.90
15360;BMP280;7779;49.596;11.070;2023-05-29T13:27:47;98321.53;;;28.85
15360;BMP280;7779;49.596;11.070;2023-05-29T13:30:15;98315.56;;;28.81
15360;BMP280;7779;49.596;11.070;2023-05-29T13:32:42;98323.28;;;28.83
15360;BMP280;7779;49.596;11.070;2023-05-29T13:35:08;98317.22;;;28.85
15360;BMP280;7779;49.596;11.070;2023-05-29T13:37:36;98316.28;;;28.89
15360;BMP280;7779;49.596;11.070;2023-05-29T13:40:03;98322.31;;;28.90
15360;BMP280;7779;49.596;11.070;2023-05-29T13:42:30;98312.88;;;28.89
15360;BMP280;7779;49.596;11.070;2023-05-29T13:44:56;98318.03;;;28.87
15360;BMP280;7779;49.596;11.070;2023-05-29T13:47:22;98318.94;;;28.88
15360;BMP280;7779;49.596;11.070;2023-05-29T13:49:47;98318.03;;;28.89
15360;BMP280;7779;49.596;11.070;2023-05-29T13:52:13;98307.69;;;28.90
15360;BMP280;7779;49.596;11.070;2023-05-29T13:54:39;98297.34;;;28.92
15360;BMP280;7779;49.596;11.070;2023-05-29T13:57:06;98292.19;;;28.93
15360;BMP280;7779;49.596;11.070;2023-05-29T13:59:34;98302.44;;;28.96
15360;BMP280;7779;49.596;11.070;2023-05-29T14:02:01;98305.06;;;28.93
15360;BMP280;7779;49.596;11.070;2023-05-29T14:04:30;98301.72;;;28.88
15360;BMP280;7779;49.596;11.070;2023-05-29T14:06:56;98301.75;;;28.85
15360;BMP280;7779;49.596;11.070;2023-05-29T14:09:24;98291.50;;;28.82
15360;BMP280;7779;49.596;11.070;2023-05-29T14:11:55;98290.63;;;28.83
15360;BMP280;7779;49.596;11.070;2023-05-29T14:14:22;98277.72;;;28.83
15360;BMP280;7779;49.596;11.070;2023-05-29T14:16:49;98278.53;;;28.85
15360;BMP280;7779;49.596;11.070;2023-05-29T14:19:15;98279.38;;;28.87
15360;BMP280;7779;49.596;11.070;2023-05-29T14:21:41;98287.06;;;28.90
15360;BMP280;7779;49.596;11.070;2023-05-29T14:24:07;98288.75;;;28.91
15360;BMP280;7779;49.596;11.070;2023-05-29T14:26:33;98285.31;;;28.92
15360;BMP280;7779;49.596;11.070;2023-05-29T14:28:59;98290.47;;;28.92
15360;BMP280;7779;49.596;11.070;2023-05-29T14:31:25;98297.34;;;28.93
15360;BMP280;7779;49.596;11.070;2023-05-29T14:33:50;98286.16;;;28.91
15360;BMP280;7779;49.596;11.070;2023-05-29T14:36:16;98291.31;;;28.91
15360;BMP280;7779;49.596;11.070;2023-05-29T14:38:42;98289.63;;;28.92
15360;BMP280;7779;49.596;11.070;2023-05-29T14:41:10;98289.53;;;28.96